Time;durP1;ratioP1;P1;durP2;ratioP2;P2;SDS_P1;SDS_P2;PMS_P1;PMS_P2;Temp;Humidity;BMP_temperature;BMP_pressure;BME280_temperature;BME280_humidity;BME280_pressure;Samples;Min_cycle;Max_cycle;Signal;HPM_P1;HPM_P2
2024/01/07 00:01:56;;;;;;;174.97;51.23;;;;;;;;;;5003798;28;20183;-45
2024/01/07 00:04:22;;;;;;;78.77;30.47;;;;;;;;;;5003445;28;20437;-45
2024/01/07 00:06:48;;;;;;;139.67;42.83;;;;;;;;;;5004918;28;20935;-45
2024/01/07 00:09:14;;;;;;;176.10;51.70;;;;;;;;;;5010494;28;20513;-45
2024/01/07 00:11:40;;;;;;;30.67;27.57;;;;;;;;;;5011789;28;20418;-45
2024/01/07 00:14:06;;;;;;;35.33;24.42;;;;;;;;;;5011636;28;20469;-45
2024/01/07 00:16:32;;;;;;;20.20;18.30;;;;;;;;;;5011696;28;20224;-44
2024/01/07 00:18:58;;;;;;;108.13;41.03;;;;;;;;;;5011340;28;20251;-45
2024/01/07 00:21:24;;;;;;;118.50;41.67;;;;;;;;;;5011721;28;20410;-45
2024/01/07 00:23:50;;;;;;;148.73;51.57;;;;;;;;;;5003689;28;20200;-45
2024/01/07 00:26:16;;;;;;;193.27;55.13;;;;;;;;;;5003905;28;20413;-45
2024/01/07 00:28:42;;;;;;;185.73;53.10;;;;;;;;;;5005398;28;20771;-45
2024/01/07 00:31:09;;;;;;;189.15;54.03;;;;;;;;;;5008171;28;20906;-45
2024/01/07 00:33:37;;;;;;;196.13;55.28;;;;;;;;;;5006197;28;20744;-45
2024/01/07 00:36:03;;;;;;;168.27;53.30;;;;;;;;;;5004510;28;20288;-44
2024/01/07 00:38:29;;;;;;;185.20;54.60;;;;;;;;;;5012153;28;20164;-44
2024/01/07 00:40:55;;;;;;;193.87;55.60;;;;;;;;;;5012503;28;20223;-45
2024/01/07 00:43:21;;;;;;;198.27;56.67;;;;;;;;;;5012430;28;20435;-45
2024/01/07 00:45:47;;;;;;;196.40;55.13;;;;;;;;;;5017970;28;20403;-44
2024/01/07 00:48:14;;;;;;;189.38;54.85;;;;;;;;;;5031059;28;20390;-45
2024/01/07 00:50:40;;;;;;;180.98;51.97;;;;;;;;;;5012151;28;20172;-45
2024/01/07 00:53:06;;;;;;;11.80;10.70;;;;;;;;;;5029690;28;20216;-45
2024/01/07 00:55:32;;;;;;;116.83;38.83;;;;;;;;;;5033863;28;20480;-44
2024/01/07 00:57:58;;;;;;;160.80;51.57;;;;;;;;;;5026899;28;20407;-44
2024/01/07 01:00:24;;;;;;;184.77;52.77;;;;;;;;;;5020684;28;20410;-44
2024/01/07 01:02:50;;;;;;;191.63;55.38;;;;;;;;;;5034648;28;20457;-44
2024/01/07 01:05:16;;;;;;;192.70;53.50;;;;;;;;;;5015963;28;20265;-44
2024/01/07 01:07:42;;;;;;;195.33;54.90;;;;;;;;;;5032392;28;20445;-44
2024/01/07 01:10:08;;;;;;;195.70;54.77;;;;;;;;;;5022485;28;20442;-45
2024/01/07 01:12:34;;;;;;;154.27;50.38;;;;;;;;;;5014749;28;20822;-44
2024/01/07 01:15:00;;;;;;;165.57;51.97;;;;;;;;;;5012771;28;20192;-44
2024/01/07 01:17:26;;;;;;;125.43;40.67;;;;;;;;;;5015417;28;20171;-44
2024/01/07 01:19:52;;;;;;;84.23;47.20;;;;;;;;;;5015298;28;20768;-44
2024/01/07 01:22:18;;;;;;;112.10;51.40;;;;;;;;;;5007890;28;20407;-45
2024/01/07 01:24:45;;;;;;;28.00;26.40;;;;;;;;;;5015466;28;20416;-44
2024/01/07 01:27:13;;;;;;;36.13;20.73;;;;;;;;;;5015310;28;20794;-45
2024/01/07 01:29:39;;;;;;;32.78;30.67;;;;;;;;;;5015098;28;20176;-45
2024/01/07 01:32:06;;;;;;;30.92;25.65;;;;;;;;;;5013758;28;20667;-45
2024/01/07 01:34:32;;;;;;;38.15;31.77;;;;;;;;;;5008419;28;20172;-44
2024/01/07 01:36:58;;;;;;;39.22;30.88;;;;;;;;;;5006993;28;20171;-44
2024/01/07 01:39:24;;;;;;;36.30;34.10;;;;;;;;;;5014842;28;20628;-44
2024/01/07 01:41:50;;;;;;;44.40;40.83;;;;;;;;;;5015310;28;20415;-45
2024/01/07 01:44:16;;;;;;;47.70;44.00;;;;;;;;;;5014898;28;20431;-45
2024/01/07 01:46:42;;;;;;;47.53;43.33;;;;;;;;;;5014645;28;20442;-45
2024/01/07 01:49:08;;;;;;;35.05;32.92;;;;;;;;;;5014805;28;20415;-44
2024/01/07 01:51:34;;;;;;;42.05;39.10;;;;;;;;;;5010031;28;20183;-45
2024/01/07 01:54:01;;;;;;;43.67;40.17;;;;;;;;;;5010983;28;20270;-45
2024/01/07 01:56:27;;;;;;;29.98;28.08;;;;;;;;;;5007133;28;20563;-44
2024/01/07 01:58:53;;;;;;;19.33;18.02;;;;;;;;;;5006159;28;20191;-44
2024/01/07 02:01:19;;;;;;;18.70;17.30;;;;;;;;;;5006291;28;20543;-44
2024/01/07 02:03:46;;;;;;;27.90;26.17;;;;;;;;;;5007184;28;20440;-45
2024/01/07 02:06:12;;;;;;;37.95;33.85;;;;;;;;;;5012495;28;20415;-45
2024/01/07 02:08:38;;;;;;;19.35;17.65;;;;;;;;;;5008334;28;20267;-44
2024/01/07 02:11:20;;;;;;;33.13;31.13;;;;;;;;;;5011260;28;20184;-45
2024/01/07 02:13:47;;;;;;;26.58;24.92;;;;;;;;;;5009328;28;20234;-44
2024/01/07 02:16:13;;;;;;;19.38;17.77;;;;;;;;;;5005864;28;20195;-43
2024/01/07 02:18:41;;;;;;;31.00;29.05;;;;;;;;;;5005278;28;20664;-44
2024/01/07 02:21:07;;;;;;;32.60;30.70;;;;;;;;;;5013490;28;20227;-44
2024/01/07 02:23:33;;;;;;;24.02;22.50;;;;;;;;;;5013401;28;20207;-44
2024/01/07 02:25:59;;;;;;;20.02;18.58;;;;;;;;;;5013267;28;20180;-44
2024/01/07 02:28:25;;;;;;;17.97;16.57;;;;;;;;;;5013270;28;20282;-44
2024/01/07 02:30:51;;;;;;;20.93;19.43;;;;;;;;;;5013312;28;20407;-44
2024/01/07 02:33:17;;;;;;;14.67;13.50;;;;;;;;;;5010667;28;20451;-44
2024/01/07 02:35:43;;;;;;;18.40;16.90;;;;;;;;;;5007950;28;20486;-44
2024/01/07 02:38:09;;;;;;;16.40;14.90;;;;;;;;;;5005137;28;20404;-44
2024/01/07 02:40:35;;;;;;;15.83;14.40;;;;;;;;;;5004794;28;20983;-44
2024/01/07 02:43:01;;;;;;;14.40;13.23;;;;;;;;;;5004853;28;20463;-44
2024/01/07 02:45:27;;;;;;;40.87;37.60;;;;;;;;;;5009169;28;20176;-44
2024/01/07 02:47:52;;;;;;;44.20;40.60;;;;;;;;;;5009123;28;20422;-45
2024/01/07 02:50:19;;;;;;;45.17;41.47;;;;;;;;;;5012780;28;20982;-45
2024/01/07 02:52:45;;;;;;;46.33;41.65;;;;;;;;;;5012781;28;20447;-44
2024/01/07 02:55:10;;;;;;;42.30;37.90;;;;;;;;;;5012620;28;20202;-43
2024/01/07 02:57:36;;;;;;;48.67;43.83;;;;;;;;;;5004953;28;20207;-44
2024/01/07 03:00:04;;;;;;;46.00;42.22;;;;;;;;;;5004415;28;20432;-44
2024/01/07 03:02:30;;;;;;;47.65;43.63;;;;;;;;;;5012694;28;20667;-44
2024/01/07 03:04:56;;;;;;;38.57;35.27;;;;;;;;;;5012740;28;20184;-44
2024/01/07 03:07:22;;;;;;;27.93;25.13;;;;;;;;;;5012706;28;20470;-44
2024/01/07 03:09:49;;;;;;;84.97;35.45;;;;;;;;;;5012284;28;20419;-43
2024/01/07 03:12:18;;;;;;;64.55;37.08;;;;;;;;;;5012501;28;20597;-43
2024/01/07 03:14:44;;;;;;;99.88;41.42;;;;;;;;;;5012737;28;20173;-44
2024/01/07 03:17:10;;;;;;;17.33;15.88;;;;;;;;;;5003782;28;20315;-44
2024/01/07 03:19:36;;;;;;;24.45;22.33;;;;;;;;;;5004127;28;20554;-44
2024/01/07 03:22:02;;;;;;;46.80;42.37;;;;;;;;;;5004329;28;20177;-44
2024/01/07 03:24:28;;;;;;;39.77;36.87;;;;;;;;;;5007865;28;20904;-44
2024/01/07 03:26:54;;;;;;;44.73;40.73;;;;;;;;;;5008836;28;20813;-44
2024/01/07 03:29:20;;;;;;;38.37;35.47;;;;;;;;;;5003891;28;20770;-44
2024/01/07 03:31:46;;;;;;;38.97;35.90;;;;;;;;;;5012303;28;20497;-44
2024/01/07 03:34:12;;;;;;;12.77;11.63;;;;;;;;;;5012530;28;20433;-45
2024/01/07 03:36:38;;;;;;;15.50;14.18;;;;;;;;;;5012223;28;20474;-44
2024/01/07 03:39:04;;;;;;;18.00;16.40;;;;;;;;;;5025060;28;20226;-44
2024/01/07 03:41:30;;;;;;;87.83;48.53;;;;;;;;;;5021859;28;20408;-44
2024/01/07 03:43:56;;;;;;;38.83;36.23;;;;;;;;;;5017878;28;20808;-44
2024/01/07 03:46:22;;;;;;;44.08;40.42;;;;;;;;;;5029982;28;20409;-44
2024/01/07 03:48:48;;;;;;;49.75;45.67;;;;;;;;;;5011740;28;20173;-43
2024/01/07 03:51:14;;;;;;;40.20;37.00;;;;;;;;;;5029771;28;20221;-44
2024/01/07 03:53:40;;;;;;;44.65;40.13;;;;;;;;;;5017899;28;20486;-44
2024/01/07 03:56:06;;;;;;;36.63;32.90;;;;;;;;;;5021422;28;20246;-44
2024/01/07 03:58:32;;;;;;;55.35;49.55;;;;;;;;;;5025951;28;20415;-45
2024/01/07 04:00:58;;;;;;;31.08;28.90;;;;;;;;;;5013263;28;20161;-45
2024/01/07 04:03:24;;;;;;;31.57;29.43;;;;;;;;;;5031719;28;20625;-45
2024/01/07 04:05:50;;;;;;;51.23;46.67;;;;;;;;;;5014428;28;20953;-45
2024/01/07 04:08:16;;;;;;;49.50;45.20;;;;;;;;;;5025009;28;20956;-44
2024/01/07 04:10:42;;;;;;;49.95;44.97;;;;;;;;;;5022955;28;20937;-44
2024/01/07 04:13:08;;;;;;;49.70;45.17;;;;;;;;;;5016609;28;20269;-45
2024/01/07 04:15:34;;;;;;;47.50;43.30;;;;;;;;;;5030521;28;20207;-44
2024/01/07 04:18:04;;;;;;;50.97;46.33;;;;;;;;;;5011800;28;20238;-44
2024/01/07 04:20:30;;;;;;;46.58;42.75;;;;;;;;;;5028686;28;20421;-45
2024/01/07 04:22:57;;;;;;;46.15;42.42;;;;;;;;;;5018350;28;20266;-45
2024/01/07 04:25:23;;;;;;;36.72;33.90;;;;;;;;;;5020661;28;20306;-44
2024/01/07 04:27:49;;;;;;;36.63;34.17;;;;;;;;;;5027335;28;20184;-44
2024/01/07 04:30:15;;;;;;;45.47;41.80;;;;;;;;;;5016245;28;20246;-44
2024/01/07 04:32:41;;;;;;;48.03;43.67;;;;;;;;;;5035438;28;20426;-44
2024/01/07 04:35:07;;;;;;;44.47;40.77;;;;;;;;;;5018564;28;20487;-45
2024/01/07 04:37:33;;;;;;;45.58;41.72;;;;;;;;;;5028074;28;20413;-45
2024/01/07 04:39:59;;;;;;;45.50;41.45;;;;;;;;;;5026919;28;20203;-45
2024/01/07 04:42:25;;;;;;;44.97;40.85;;;;;;;;;;5020227;28;20254;-45
2024/01/07 04:44:51;;;;;;;47.60;43.33;;;;;;;;;;5034899;28;20631;-45
2024/01/07 04:47:43;;;;;;;40.53;37.23;;;;;;;;;;5015773;28;20200;-44
2024/01/07 04:50:09;;;;;;;45.78;42.22;;;;;;;;;;4994175;28;20424;-44
2024/01/07 04:52:35;;;;;;;43.03;39.47;;;;;;;;;;5010994;28;20204;-44
2024/01/07 04:55:01;;;;;;;40.90;38.00;;;;;;;;;;5012846;28;20204;-44
2024/01/07 04:57:27;;;;;;;41.20;38.53;;;;;;;;;;5015011;28;20443;-44
2024/01/07 04:59:53;;;;;;;42.47;39.30;;;;;;;;;;5011619;28;20423;-45
2024/01/07 05:02:20;;;;;;;25.35;23.50;;;;;;;;;;4995616;28;20165;-44
2024/01/07 05:04:46;;;;;;;38.58;36.05;;;;;;;;;;5014511;28;20176;-47
2024/01/07 05:07:12;;;;;;;43.83;40.23;;;;;;;;;;4999968;28;20542;-46
2024/01/07 05:09:38;;;;;;;37.90;35.33;;;;;;;;;;5004792;28;20797;-45
2024/01/07 05:12:04;;;;;;;35.40;33.10;;;;;;;;;;5007996;28;20447;-46
2024/01/07 05:14:30;;;;;;;35.35;33.00;;;;;;;;;;4997981;28;20482;-45
2024/01/07 05:16:56;;;;;;;32.67;30.77;;;;;;;;;;5014996;28;20211;-47
2024/01/07 05:19:22;;;;;;;36.63;34.27;;;;;;;;;;4996006;28;20412;-45
2024/01/07 05:21:48;;;;;;;40.22;37.38;;;;;;;;;;5009519;28;20421;-46
2024/01/07 05:24:14;;;;;;;68.60;44.50;;;;;;;;;;5004031;28;20211;-47
2024/01/07 05:26:40;;;;;;;49.75;45.15;;;;;;;;;;5000081;28;20416;-45
2024/01/07 05:29:06;;;;;;;28.08;26.38;;;;;;;;;;5012065;28;20217;-46
2024/01/07 05:31:32;;;;;;;27.00;25.43;;;;;;;;;;4995149;28;20711;-45
2024/01/07 05:33:58;;;;;;;41.47;38.97;;;;;;;;;;5012838;28;20439;-46
2024/01/07 05:36:24;;;;;;;29.10;27.20;;;;;;;;;;5000297;28;20451;-46
2024/01/07 05:38:50;;;;;;;23.33;21.63;;;;;;;;;;5004577;28;20172;-45
2024/01/07 05:41:16;;;;;;;30.73;28.73;;;;;;;;;;5007905;28;20982;-46
2024/01/07 05:43:42;;;;;;;35.92;33.13;;;;;;;;;;4996395;28;20416;-47
2024/01/07 05:46:08;;;;;;;22.13;20.63;;;;;;;;;;5014619;28;20663;-46
2024/01/07 05:48:44;;;;;;;68.05;42.45;;;;;;;;;;4996246;28;20463;-46
2024/01/07 05:51:10;;;;;;;185.48;52.75;;;;;;;;;;5009407;28;20251;-46
2024/01/07 05:53:36;;;;;;;190.38;53.60;;;;;;;;;;5009792;28;20256;-46
2024/01/07 05:56:02;;;;;;;189.73;53.22;;;;;;;;;;5013811;28;20208;-45
2024/01/07 05:58:28;;;;;;;183.77;54.00;;;;;;;;;;5013771;28;20176;-46
2024/01/07 06:00:54;;;;;;;185.18;51.58;;;;;;;;;;5013881;28;20253;-45
2024/01/07 06:03:20;;;;;;;187.75;52.85;;;;;;;;;;5014012;28;20546;-47
2024/01/07 06:05:46;;;;;;;66.47;28.10;;;;;;;;;;5013823;28;20186;-45
2024/01/07 06:08:13;;;;;;;185.23;52.83;;;;;;;;;;5013892;28;20946;-46
2024/01/07 06:10:39;;;;;;;191.55;54.67;;;;;;;;;;5013593;28;20458;-48
2024/01/07 06:13:05;;;;;;;190.98;54.10;;;;;;;;;;5012449;28;20208;-45
2024/01/07 06:15:31;;;;;;;184.98;52.05;;;;;;;;;;5006613;28;20249;-46
2024/01/07 06:17:57;;;;;;;64.15;25.17;;;;;;;;;;5013458;28;20176;-45
2024/01/07 06:20:23;;;;;;;156.63;49.27;;;;;;;;;;5013446;28;20206;-45
2024/01/07 06:22:50;;;;;;;186.68;53.90;;;;;;;;;;5013532;28;20430;-46
2024/01/07 06:25:16;;;;;;;189.00;55.15;;;;;;;;;;5013371;28;20186;-46
2024/01/07 06:27:42;;;;;;;192.77;54.63;;;;;;;;;;5013458;28;20268;-47
2024/01/07 06:30:08;;;;;;;74.20;28.30;;;;;;;;;;5005003;28;20474;-46
2024/01/07 06:32:35;;;;;;;188.77;53.72;;;;;;;;;;5008740;28;20462;-45
2024/01/07 06:35:01;;;;;;;189.00;53.50;;;;;;;;;;5009824;28;20196;-45
2024/01/07 06:37:29;;;;;;;188.43;54.30;;;;;;;;;;5005880;28;20164;-45
2024/01/07 06:39:55;;;;;;;193.45;55.05;;;;;;;;;;5004876;28;20267;-45
2024/01/07 06:42:21;;;;;;;192.75;54.15;;;;;;;;;;5005010;28;20657;-45
2024/01/07 06:44:47;;;;;;;186.30;53.60;;;;;;;;;;5012952;28;20202;-46
2024/01/07 06:47:13;;;;;;;134.07;43.90;;;;;;;;;;5013256;28;20193;-45
2024/01/07 06:49:39;;;;;;;31.60;28.65;;;;;;;;;;5007261;28;20184;-45
2024/01/07 06:52:05;;;;;;;26.77;24.43;;;;;;;;;;5008639;28;20184;-46
2024/01/07 06:54:31;;;;;;;34.45;30.75;;;;;;;;;;5005835;28;20442;-45
2024/01/07 06:56:57;;;;;;;31.90;29.07;;;;;;;;;;5004638;28;20196;-46
2024/01/07 06:59:23;;;;;;;35.30;28.57;;;;;;;;;;5012655;28;20457;-45
2024/01/07 07:01:49;;;;;;;49.10;44.50;;;;;;;;;;5012601;28;20427;-46
2024/01/07 07:04:15;;;;;;;42.63;38.87;;;;;;;;;;5012078;28;20465;-45
2024/01/07 07:06:41;;;;;;;41.63;38.03;;;;;;;;;;5012248;28;20481;-45
2024/01/07 07:09:07;;;;;;;35.28;30.55;;;;;;;;;;5011775;28;20473;-45
2024/01/07 07:11:33;;;;;;;35.27;31.67;;;;;;;;;;5007722;28;20185;-45
2024/01/07 07:13:59;;;;;;;32.50;29.25;;;;;;;;;;5008619;28;20461;-46
2024/01/07 07:16:26;;;;;;;63.60;42.10;;;;;;;;;;5004783;28;20201;-45
2024/01/07 07:18:52;;;;;;;45.72;34.53;;;;;;;;;;5004349;28;20196;-45
2024/01/07 07:21:18;;;;;;;26.47;23.73;;;;;;;;;;5004417;28;20643;-45
2024/01/07 07:23:44;;;;;;;38.00;29.70;;;;;;;;;;5005948;28;21080;-45
2024/01/07 07:26:10;;;;;;;49.53;38.50;;;;;;;;;;5010646;28;20930;-45
2024/01/07 07:28:36;;;;;;;37.07;33.27;;;;;;;;;;5012042;28;20814;-46
2024/01/07 07:31:02;;;;;;;48.77;37.27;;;;;;;;;;5012286;28;20446;-45
2024/01/07 07:33:27;;;;;;;67.07;44.97;;;;;;;;;;5012211;28;20423;-45
2024/01/07 07:35:53;;;;;;;101.77;47.83;;;;;;;;;;5012166;28;20459;-45
2024/01/07 07:38:19;;;;;;;76.73;37.70;;;;;;;;;;5011940;28;20502;-45
2024/01/07 07:40:52;;;;;;;72.37;36.60;;;;;;;;;;5003925;28;20490;-46
2024/01/07 07:43:18;;;;;;;38.65;34.13;;;;;;;;;;5003883;28;20454;-46
2024/01/07 07:45:44;;;;;;;28.20;22.43;;;;;;;;;;5005763;28;20645;-45
2024/01/07 07:48:10;;;;;;;95.57;48.90;;;;;;;;;;5007270;28;21001;-45
2024/01/07 07:50:36;;;;;;;158.70;52.00;;;;;;;;;;5012035;28;20822;-45
2024/01/07 07:53:02;;;;;;;194.57;57.23;;;;;;;;;;5003561;28;20910;-46
2024/01/07 07:55:28;;;;;;;179.95;55.22;;;;;;;;;;5011737;28;20443;-46
2024/01/07 07:57:54;;;;;;;187.32;52.50;;;;;;;;;;5003835;28;20172;-45
2024/01/07 08:00:20;;;;;;;187.05;52.45;;;;;;;;;;5003684;28;20230;-45
2024/01/07 08:02:46;;;;;;;120.95;46.67;;;;;;;;;;5004853;28;20193;-45
2024/01/07 08:05:13;;;;;;;54.13;48.75;;;;;;;;;;5008265;28;20238;-45
2024/01/07 08:07:39;;;;;;;64.10;44.30;;;;;;;;;;5003928;28;20180;-45
2024/01/07 08:10:06;;;;;;;14.87;13.43;;;;;;;;;;5007981;28;20180;-45
2024/01/07 08:12:32;;;;;;;23.35;21.17;;;;;;;;;;5004978;28;20434;-45
2024/01/07 08:14:57;;;;;;;32.23;29.07;;;;;;;;;;5003647;28;20240;-45
2024/01/07 08:17:23;;;;;;;177.07;51.10;;;;;;;;;;5003702;28;20399;-45
2024/01/07 08:19:50;;;;;;;187.77;55.97;;;;;;;;;;5004266;28;20471;-45
2024/01/07 08:22:16;;;;;;;152.68;48.50;;;;;;;;;;5010684;28;20991;-45
2024/01/07 08:24:42;;;;;;;57.07;35.57;;;;;;;;;;5011584;28;20234;-45
2024/01/07 08:27:08;;;;;;;65.82;39.95;;;;;;;;;;5011630;28;20415;-46
2024/01/07 08:29:35;;;;;;;73.38;34.85;;;;;;;;;;5011618;28;20267;-45
2024/01/07 08:32:01;;;;;;;40.10;34.25;;;;;;;;;;5011793;28;20172;-45
2024/01/07 08:34:27;;;;;;;43.45;39.03;;;;;;;;;;5011454;28;20188;-45
2024/01/07 08:36:53;;;;;;;18.88;17.38;;;;;;;;;;5003346;28;20216;-45
2024/01/07 08:39:20;;;;;;;13.32;12.07;;;;;;;;;;5003406;28;20251;-45
2024/01/07 08:41:46;;;;;;;12.82;11.73;;;;;;;;;;5005116;28;20212;-45
2024/01/07 08:44:12;;;;;;;12.85;11.50;;;;;;;;;;5008675;28;20624;-45
2024/01/07 08:46:38;;;;;;;18.55;16.80;;;;;;;;;;5011486;28;20204;-45
2024/01/07 08:49:05;;;;;;;19.75;18.25;;;;;;;;;;5010223;28;20200;-45
2024/01/07 08:51:30;;;;;;;112.07;42.00;;;;;;;;;;5004540;28;20168;-45
2024/01/07 08:53:58;;;;;;;19.13;14.00;;;;;;;;;;5003124;28;20227;-45
2024/01/07 08:56:24;;;;;;;158.73;48.88;;;;;;;;;;5007405;28;20470;-45
2024/01/07 08:58:50;;;;;;;180.67;54.10;;;;;;;;;;5011128;28;20658;-45
2024/01/07 09:01:16;;;;;;;172.23;52.88;;;;;;;;;;5011229;28;20464;-45
2024/01/07 09:03:42;;;;;;;164.67;51.53;;;;;;;;;;5005188;28;20280;-45
2024/01/07 09:06:08;;;;;;;158.43;51.83;;;;;;;;;;5007695;28;20426;-45
2024/01/07 09:08:35;;;;;;;158.18;53.95;;;;;;;;;;5004545;28;20966;-45
2024/01/07 09:11:01;;;;;;;25.10;22.92;;;;;;;;;;5003180;28;20171;-45
2024/01/07 09:13:27;;;;;;;20.98;19.48;;;;;;;;;;5003167;28;20199;-45
2024/01/07 09:15:53;;;;;;;16.75;15.38;;;;;;;;;;5005867;28;20211;-45
2024/01/07 09:18:19;;;;;;;14.90;13.40;;;;;;;;;;5014213;28;20277;-45
2024/01/07 09:23:36;;;;;;;157.73;59.78;;;;;;;;;;5731624;22;20439;-45
2024/01/07 09:26:01;;;;;;;150.60;54.42;;;;;;;;;;5011731;28;20613;-45
2024/01/07 09:28:27;;;;;;;146.57;52.47;;;;;;;;;;5015053;28;20188;-46
2024/01/07 09:30:53;;;;;;;141.37;52.43;;;;;;;;;;5014817;28;20994;-45
2024/01/07 09:33:22;;;;;;;114.70;44.05;;;;;;;;;;5006382;28;20503;-45
2024/01/07 09:35:48;;;;;;;147.10;54.17;;;;;;;;;;4982458;28;20208;-45
2024/01/07 09:38:14;;;;;;;160.47;54.67;;;;;;;;;;4991388;28;20185;-45
2024/01/07 09:40:41;;;;;;;148.02;53.55;;;;;;;;;;4994312;28;20408;-45
2024/01/07 09:43:08;;;;;;;94.25;43.38;;;;;;;;;;4994200;28;20269;-44
2024/01/07 09:45:36;;;;;;;19.08;17.48;;;;;;;;;;4975707;28;20210;-44
2024/01/07 09:48:03;;;;;;;21.08;19.23;;;;;;;;;;4990613;28;20272;-44
2024/01/07 09:50:29;;;;;;;20.50;18.67;;;;;;;;;;4983404;28;20186;-44
2024/01/07 09:52:58;;;;;;;33.17;30.63;;;;;;;;;;4981549;28;20209;-44
2024/01/07 09:55:32;;;;;;;15.80;14.40;;;;;;;;;;4993516;28;20189;-45
2024/01/07 09:57:58;;;;;;;14.95;13.55;;;;;;;;;;4993689;28;20201;-44
2024/01/07 10:00:25;;;;;;;24.90;23.10;;;;;;;;;;4975188;28;20676;-44
2024/01/07 10:02:51;;;;;;;21.27;19.65;;;;;;;;;;4990876;28;20200;-44
2024/01/07 10:05:17;;;;;;;16.30;14.90;;;;;;;;;;4981595;28;20182;-43
2024/01/07 10:07:43;;;;;;;17.90;16.50;;;;;;;;;;4983384;28;20476;-45
2024/01/07 10:10:15;;;;;;;18.52;17.08;;;;;;;;;;4989810;28;20454;-43
2024/01/07 10:12:41;;;;;;;22.73;20.63;;;;;;;;;;4974148;28;20174;-45
2024/01/07 10:15:07;;;;;;;18.20;16.65;;;;;;;;;;4994260;28;20563;-44
2024/01/07 10:17:33;;;;;;;17.23;15.73;;;;;;;;;;4982868;28;20216;-44
2024/01/07 10:19:59;;;;;;;17.52;16.13;;;;;;;;;;4984756;28;20581;-44
2024/01/07 10:22:27;;;;;;;18.23;16.73;;;;;;;;;;4982927;28;20181;-44
2024/01/07 10:24:53;;;;;;;25.08;23.38;;;;;;;;;;4988782;28;20414;-44
2024/01/07 10:27:19;;;;;;;26.40;24.50;;;;;;;;;;4974957;28;20664;-44
2024/01/07 10:29:50;;;;;;;23.95;22.23;;;;;;;;;;4993875;28;20509;-44
2024/01/07 10:32:16;;;;;;;44.05;33.63;;;;;;;;;;4986575;28;20259;-45
2024/01/07 10:34:43;;;;;;;103.25;50.03;;;;;;;;;;4991230;28;20431;-44
2024/01/07 10:37:10;;;;;;;112.53;45.00;;;;;;;;;;4984045;28;20185;-44
2024/01/07 10:39:36;;;;;;;145.68;55.97;;;;;;;;;;4979549;28;20223;-45
2024/01/07 10:42:02;;;;;;;155.90;59.83;;;;;;;;;;4991988;28;20620;-44
2024/01/07 10:44:30;;;;;;;119.30;51.17;;;;;;;;;;4973650;28;20417;-44
2024/01/07 10:46:56;;;;;;;157.07;56.47;;;;;;;;;;4991159;28;20695;-44
2024/01/07 10:49:23;;;;;;;158.00;56.42;;;;;;;;;;4980174;28;20205;-44
2024/01/07 10:51:55;;;;;;;102.85;46.28;;;;;;;;;;4983080;28;20177;-44
2024/01/07 10:54:22;;;;;;;101.32;45.45;;;;;;;;;;4986718;28;20285;-44
2024/01/07 10:56:50;;;;;;;92.63;44.97;;;;;;;;;;4976457;28;20208;-44
2024/01/07 10:59:16;;;;;;;79.47;45.15;;;;;;;;;;4993350;28;20180;-44
2024/01/07 11:01:43;;;;;;;141.60;52.28;;;;;;;;;;4974947;28;20208;-44
2024/01/07 11:04:14;;;;;;;100.72;50.60;;;;;;;;;;4986923;28;20185;-44
2024/01/07 11:06:46;;;;;;;65.05;41.83;;;;;;;;;;4992688;28;20169;-44
2024/01/07 11:09:12;;;;;;;49.78;39.78;;;;;;;;;;4987135;28;20220;-44
2024/01/07 11:11:42;;;;;;;37.95;33.70;;;;;;;;;;4992708;28;20554;-44
2024/01/07 11:14:52;;;;;;;114.82;50.53;;;;;;;;;;4989762;28;20259;-44
2024/01/07 11:17:38;;;;;;;94.65;52.45;;;;;;;;;;4953778;28;20235;-44
2024/01/07 11:20:14;;;;;;;45.15;37.30;;;;;;;;;;4981062;28;20205;-45
2024/01/07 11:22:40;;;;;;;30.92;28.13;;;;;;;;;;4972799;28;20220;-43
2024/01/07 11:25:26;;;;;;;28.98;26.60;;;;;;;;;;4973145;28;20242;-44
2024/01/07 11:27:52;;;;;;;36.70;32.70;;;;;;;;;;4981953;28;20280;-44
2024/01/07 11:30:21;;;;;;;63.13;42.13;;;;;;;;;;4980598;28;20618;-44
2024/01/07 11:32:47;;;;;;;77.85;44.30;;;;;;;;;;4991966;28;20908;-44
2024/01/07 11:35:16;;;;;;;84.23;50.97;;;;;;;;;;4992226;28;20234;-45
2024/01/07 11:37:42;;;;;;;92.32;45.38;;;;;;;;;;4991924;28;20404;-44
2024/01/07 11:40:08;;;;;;;164.43;63.20;;;;;;;;;;4992520;28;20204;-44
2024/01/07 11:42:34;;;;;;;153.13;68.53;;;;;;;;;;4991768;28;20189;-44
2024/01/07 11:45:00;;;;;;;82.57;49.43;;;;;;;;;;4992103;28;20192;-45
2024/01/07 11:47:27;;;;;;;120.77;60.00;;;;;;;;;;4992103;28;20420;-44
2024/01/07 11:49:54;;;;;;;99.18;45.50;;;;;;;;;;4992306;28;20506;-44
2024/01/07 11:52:20;;;;;;;85.43;48.83;;;;;;;;;;4992013;28;20280;-45
2024/01/07 11:54:47;;;;;;;32.90;30.00;;;;;;;;;;4991880;28;20225;-44
2024/01/07 11:57:13;;;;;;;30.73;28.30;;;;;;;;;;4992120;28;20188;-44
2024/01/07 11:59:39;;;;;;;50.33;45.03;;;;;;;;;;4991989;28;20227;-44
2024/01/07 12:02:05;;;;;;;73.00;46.13;;;;;;;;;;4992089;28;20522;-44
2024/01/07 12:04:31;;;;;;;51.05;41.97;;;;;;;;;;4991570;28;20331;-44
2024/01/07 12:06:58;;;;;;;49.85;44.55;;;;;;;;;;4992080;28;20189;-44
2024/01/07 12:09:24;;;;;;;42.40;37.90;;;;;;;;;;4991949;28;20192;-44
2024/01/07 12:11:50;;;;;;;56.03;44.88;;;;;;;;;;4992061;28;20567;-44
2024/01/07 12:14:16;;;;;;;60.75;44.30;;;;;;;;;;4991116;28;20255;-44
2024/01/07 12:16:42;;;;;;;41.25;37.00;;;;;;;;;;4992040;28;20288;-44
2024/01/07 12:19:09;;;;;;;28.60;26.13;;;;;;;;;;4992047;28;20209;-44
2024/01/07 12:21:35;;;;;;;25.42;23.33;;;;;;;;;;4991756;28;20416;-45
2024/01/07 12:24:01;;;;;;;28.60;25.97;;;;;;;;;;4991291;28;20215;-45
2024/01/07 12:26:28;;;;;;;31.70;28.80;;;;;;;;;;4991713;28;20432;-44
2024/01/07 12:28:59;;;;;;;33.17;30.48;;;;;;;;;;4991296;28;20191;-44
2024/01/07 12:31:26;;;;;;;31.27;28.48;;;;;;;;;;4991692;28;20188;-44
2024/01/07 12:33:53;;;;;;;49.35;44.28;;;;;;;;;;4990513;28;20220;-44
2024/01/07 12:36:22;;;;;;;37.25;34.08;;;;;;;;;;4991047;28;20236;-44
2024/01/07 12:38:48;;;;;;;30.13;27.60;;;;;;;;;;4991188;28;20169;-44
2024/01/07 12:41:14;;;;;;;35.78;32.55;;;;;;;;;;5005858;28;20659;-45
2024/01/07 12:43:40;;;;;;;46.33;41.60;;;;;;;;;;4996585;28;20272;-45
2024/01/07 12:46:07;;;;;;;60.63;54.40;;;;;;;;;;4990090;28;20370;-44
2024/01/07 12:48:33;;;;;;;61.17;55.17;;;;;;;;;;4988985;28;20440;-44
2024/01/07 12:50:59;;;;;;;59.35;53.53;;;;;;;;;;4991250;28;20646;-44
2024/01/07 12:53:25;;;;;;;60.15;53.85;;;;;;;;;;4994064;28;20208;-43
2024/01/07 12:55:51;;;;;;;62.47;55.88;;;;;;;;;;4988451;28;20679;-45
2024/01/07 12:58:17;;;;;;;63.30;56.83;;;;;;;;;;4992756;28;20212;-44
2024/01/07 13:00:43;;;;;;;40.50;36.80;;;;;;;;;;4986365;28;20420;-44
2024/01/07 13:03:17;;;;;;;42.28;37.75;;;;;;;;;;4976916;28;20441;-43
2024/01/07 13:05:43;;;;;;;45.15;40.38;;;;;;;;;;4989823;28;20165;-44
2024/01/07 13:08:09;;;;;;;53.10;44.50;;;;;;;;;;5012904;28;20172;-43
2024/01/07 13:10:35;;;;;;;50.40;43.20;;;;;;;;;;5006730;28;20188;-44
2024/01/07 13:13:01;;;;;;;34.30;31.57;;;;;;;;;;5000307;28;20443;-45
2024/01/07 13:15:27;;;;;;;34.63;32.08;;;;;;;;;;5008023;28;21064;-42
2024/01/07 13:17:53;;;;;;;54.10;44.43;;;;;;;;;;5013034;28;20204;-43
2024/01/07 13:20:19;;;;;;;31.97;29.37;;;;;;;;;;4993856;28;20420;-43
2024/01/07 13:22:49;;;;;;;43.47;39.08;;;;;;;;;;4981008;28;20498;-45
2024/01/07 13:25:14;;;;;;;37.38;34.47;;;;;;;;;;5007011;28;20251;-43
2024/01/07 13:27:42;;;;;;;39.43;36.30;;;;;;;;;;4995832;28;20188;-44
2024/01/07 13:30:09;;;;;;;68.85;62.25;;;;;;;;;;4994713;28;20408;-43
2024/01/07 13:32:36;;;;;;;76.40;68.40;;;;;;;;;;4986554;28;20180;-43
2024/01/07 13:35:03;;;;;;;41.55;38.22;;;;;;;;;;4993296;28;20601;-43
2024/01/07 13:37:29;;;;;;;33.58;31.13;;;;;;;;;;4977440;28;20177;-43
2024/01/07 13:39:55;;;;;;;38.03;35.00;;;;;;;;;;4988967;28;20180;-43
2024/01/07 13:42:21;;;;;;;36.80;33.70;;;;;;;;;;4985666;28;20721;-44
2024/01/07 13:44:47;;;;;;;54.40;49.10;;;;;;;;;;4981963;28;20805;-43
2024/01/07 13:47:14;;;;;;;62.27;56.13;;;;;;;;;;4982281;28;20920;-42
2024/01/07 13:49:40;;;;;;;60.38;54.55;;;;;;;;;;4990536;28;20416;-43
2024/01/07 13:52:06;;;;;;;71.93;64.97;;;;;;;;;;4981544;28;20258;-43
2024/01/07 13:54:32;;;;;;;67.93;61.33;;;;;;;;;;4986745;28;20228;-44
2024/01/07 13:56:59;;;;;;;66.22;60.13;;;;;;;;;;4985690;28;20542;-44
2024/01/07 13:59:26;;;;;;;64.05;58.00;;;;;;;;;;4975628;28;20527;-43
2024/01/07 14:01:52;;;;;;;68.43;61.95;;;;;;;;;;4986133;28;20186;-46
2024/01/07 14:04:18;;;;;;;63.25;56.97;;;;;;;;;;4974635;28;20198;-43
2024/01/07 14:06:45;;;;;;;68.72;62.00;;;;;;;;;;4975255;28;20593;-44
2024/01/07 14:09:11;;;;;;;68.07;61.38;;;;;;;;;;4977021;28;20184;-43
2024/01/07 14:11:37;;;;;;;67.10;60.47;;;;;;;;;;4983381;28;20187;-45
2024/01/07 14:14:03;;;;;;;69.77;62.90;;;;;;;;;;4988528;28;20288;-45